Granite Canon, Wyoming
Current Conditions -  °F | °C
As of 6:56 PM on Thursday 20 Nov 2014 (Local Time) from KFEW Reporting Station
Broken Clouds Broken Clouds  
Wind Chill: -2°   Ceiling: 17000
Heat Index: -2°   Visibility: 10mi
Dew Point: -9°   Wind: 3mph
Humidity: 62%   Direction: 300°WNW
Pressure: 29.95"   Gusts: NA
Location:  41.1°N, 105.14°W
Report Text: KFEW 210156Z AUTO 30003KT 10SM FEW100 BKN170 M02/M09 A2995 RMK AO2 SLP187 T10221086 $
Loading
Personal Weather Stations






























Interactive Weather Map New forecast layout! Learn more

10-Day Weather Forecast

Advertisements
Track Severe Weather on mobile